Pagina principale
METAR-TAF:

METAR-TAF

Aeroporti :

Meiringen, Svizzera

latitudine: 46-44-25N, longitudine: 8-06-36E, altezza: 577 m

Osservazione

Il bollettino è stato emesso 1 ora e 2 minuti fa, alle 19:50 UTC
Vento 6 kt da direzioni variabili
Temperature 17°C
Umidità 45%
Pressione 1024 hPa
Visibilità 10 km o più
Nuvoloso ad un'altezza di 6400 ft
Cielo coperto ad un'altezza di 7300 ft

METAR: LSMM 221950Z AUTO VRB06KT 9999NDV BKN064 OVC073 17/05 Q1024 RMK

Ora: 22:52 (20:52 UTC)


TAF: mancante

Osservazioni e previsioni meteorologiche di più di 4000 aeroporti (messaggi METAR e TAF).

Le stazioni disponibili sono rappresentate dai dischi gialli e rossi sulla carta.

Puntare il mouse per vedere il nome della stazione.

Clicca sopra per visualizzare le osservazioni e previsioni meteorologiche.

Per cambiare la mappa : fare clic sui pulsanti verdi con una croce nera per ingrandire, il pulsante verde con un trattino per diminuire, o sulla freccia verde per le mappe adiacenti.


METAR-TAF: